Cornett, Texas
Current Conditions -  °F | °C
As of 5:55 PM on Saturday 22 Nov 2014 (Local Time) from KOSA Reporting Station
Overcast Overcast  
Wind Chill: 66°   Ceiling: 2200
Heat Index: 66°   Visibility: 10mi
Dew Point: 58°   Wind: 9mph
Humidity: 77%   Direction: 120°ESE
Pressure: 29.89"   Gusts: NA
Location:  33.2006°N, 94.6977°W
Report Text: KOSA 222355Z AUTO 12008KT 10SM OVC022 19/15 A2989 RMK AO1 T01870145 10217 20186
Loading
Personal Weather Stations






























Interactive Weather Map New forecast layout! Learn more

10-Day Weather Forecast

Advertisements
Track Severe Weather on mobile